Saskatoon John G. Diefenbaker International Airport
CYXE : rendu visible

Aérodrome :











RETROUVEZ-NOUS SUR...

 
LOGIN :

S'inscrire | Disclaimer

   EN    FR    IT 

 









Légende :    VFR   VFR Marginal   IFR   IFR Intensif   IFR Très Intensif
Visi : 
Plafond : 
>= 8 km
>= 3000ft
5 à 8 km
1000 à 3000 ft
1500m à 5 km
500 à 1000 ft
800 à 1500m
200 à 500 ft
< 800m
< 200 ft
Symboles :   Orages  Brouillard  Fortes neiges  Fortes précipitations  Vent > 20 kt






- Altitude de l'aérodrome : 1653 ft
- Code IATA : YXE


CYXE - Saskatoon John G. Diefenbaker International

DERNIER METAR :
  • 222300Z 27009KT 15SM FEW100 02/M02 A2967 RMK AC1 SLP078

METARs EXPIRÉS :
  • 222200Z 28011G16KT 15SM FEW080 SCT160 04/M02 A2966 RMK AC2AC1 SLP070
  • 222100Z 25007KT 15SM SCT120 BKN180 05/M03 A2962 RMK AC4AC1 PRESRR SLP058

TAF TAF CYXE
Valide du 22 à 18h jusqu'au 23 à 18h UTC


221740Z 2218/2318 23012KT P6SM SKC
FM222100 28015G25KT P6SM SCT080 BKN120
TEMPO 2221/2223 P6SM -SHRA BKN080
FM222300 25015G25KT P6SM FEW080
FM230400 28012KT P6SM FEW220 RMK NXT FCST BY 230000Z



MET'MAP, la Météo Aéronautique d'un coup d'oeil ! - Copyright ORBIFLY Décembre 2007 - Disclaimer

ORBIFLY MET'MAP TEAM :

Programmation & Développement : Alexandra Zaïnal
Conception & Développement : Baudouin d'Aumeries
Co-Programmation & Développement : Marc-Olivier Méhu
Soutien technique & logistique : Manuel Goepfert

Contact : metmap@orbifly.com




SOURCES & CREDITS :

   NOAA       Earth
Advisory